Zedelgem, Belgium
Current Conditions -  °F | °C
As of 9:20 PM on Monday 22 Dec 2014 (Local Time) from EBOS Reporting Station
Scattered Clouds Scattered Clouds  
Wind Chill: 52°   Ceiling: Unl
Heat Index: 52°   Visibility: 6mi
Dew Point: 46°   Wind: 23mph
Humidity: 82%   Direction: 240°WSW
Pressure: 30.09"   Gusts: 35mph
Location:  51.14°N, 3.14°E
Report Text: EBOS 222020Z 24020G30KT 9999 FEW018 SCT038 11/08 Q1019 NOSIG
Loading
Personal Weather Stations






























Interactive Weather Map New forecast layout! Learn more

10-Day Weather Forecast

Advertisements
Track Severe Weather on mobile